Time;durP1;ratioP1;P1;durP2;ratioP2;P2;SDS_P1;SDS_P2;PMS_P1;PMS_P2;Temp;Humidity;BMP_temperature;BMP_pressure;BME280_temperature;BME280_humidity;BME280_pressure;Samples;Min_cycle;Max_cycle;Signal;HPM_P1;HPM_P2
2023/09/25 00:00:56;;;;;;;18.15;16.17;;;;;;;;;;7304640;19;140553;-77
2023/09/25 00:03:24;;;;;;;17.57;15.73;;;;;;;;;;7304007;19;140981;-76
2023/09/25 00:05:51;;;;;;;17.13;15.33;;;;;;;;;;7302465;19;142555;-76
2023/09/25 00:08:18;;;;;;;17.52;15.63;;;;;;;;;;7304556;19;140572;-77
2023/09/25 00:10:45;;;;;;;17.10;15.30;;;;;;;;;;7303474;19;142730;-77
2023/09/25 00:13:12;;;;;;;17.63;15.50;;;;;;;;;;7303653;19;141784;-77
2023/09/25 00:15:44;;;;;;;16.70;14.95;;;;;;;;;;7303602;19;141893;-76
2023/09/25 00:18:11;;;;;;;16.90;15.15;;;;;;;;;;7302798;19;140763;-76
2023/09/25 00:20:39;;;;;;;17.08;15.23;;;;;;;;;;7303993;19;140448;-76
2023/09/25 00:23:06;;;;;;;16.77;14.98;;;;;;;;;;7303453;19;141447;-77
2023/09/25 00:25:33;;;;;;;16.23;14.52;;;;;;;;;;7302131;19;141127;-76
2023/09/25 00:28:02;;;;;;;15.80;14.10;;;;;;;;;;7303752;19;140528;-76
2023/09/25 00:30:29;;;;;;;16.30;14.55;;;;;;;;;;7303925;19;140945;-76
2023/09/25 00:32:57;;;;;;;15.80;14.20;;;;;;;;;;7302450;19;141939;-75
2023/09/25 00:35:24;;;;;;;15.68;14.07;;;;;;;;;;7302947;19;142046;-76
2023/09/25 00:37:51;;;;;;;15.10;13.50;;;;;;;;;;7303651;19;140430;-76
2023/09/25 00:40:19;;;;;;;15.27;13.68;;;;;;;;;;7303525;19;140681;-76
2023/09/25 00:42:46;;;;;;;15.15;13.55;;;;;;;;;;7300122;19;142187;-76
2023/09/25 00:45:14;;;;;;;14.40;12.90;;;;;;;;;;7302919;19;142595;-76
2023/09/25 00:47:41;;;;;;;14.67;13.17;;;;;;;;;;7302517;19;140820;-76
2023/09/25 00:50:09;;;;;;;14.50;12.90;;;;;;;;;;7300417;19;140655;-76
2023/09/25 00:52:41;;;;;;;14.20;12.70;;;;;;;;;;7301583;19;141919;-76
2023/09/25 00:55:09;;;;;;;14.38;12.80;;;;;;;;;;7300548;19;142226;-76
2023/09/25 00:57:39;;;;;;;14.32;12.63;;;;;;;;;;7302688;19;140760;-76
2023/09/25 01:00:12;;;;;;;13.60;12.20;;;;;;;;;;7302571;19;140747;-76
2023/09/25 01:02:40;;;;;;;14.00;12.50;;;;;;;;;;7302303;19;140622;-76
2023/09/25 01:05:11;;;;;;;13.10;11.73;;;;;;;;;;7302175;19;141568;-75
2023/09/25 01:07:39;;;;;;;13.63;12.23;;;;;;;;;;7301815;19;140655;-76
2023/09/25 01:10:14;;;;;;;13.57;12.17;;;;;;;;;;7300804;19;140790;-75
2023/09/25 01:12:45;;;;;;;12.87;11.57;;;;;;;;;;7301766;19;140595;-78
2023/09/25 01:15:13;;;;;;;14.20;11.88;;;;;;;;;;7301253;19;141824;-76
2023/09/25 01:17:41;;;;;;;12.90;11.60;;;;;;;;;;7302562;19;140686;-76
2023/09/25 01:20:15;;;;;;;12.57;11.38;;;;;;;;;;7301570;19;140466;-76
2023/09/25 01:22:51;;;;;;;12.32;11.02;;;;;;;;;;7300352;19;142670;-76
2023/09/25 01:25:22;;;;;;;12.63;11.43;;;;;;;;;;7302253;19;141206;-75
2023/09/25 01:27:50;;;;;;;11.80;10.60;;;;;;;;;;7303732;19;140811;-76
2023/09/25 01:30:18;;;;;;;12.38;11.07;;;;;;;;;;7304059;19;140481;-75
2023/09/25 01:32:48;;;;;;;12.40;11.10;;;;;;;;;;7306205;19;140763;-76
2023/09/25 01:35:17;;;;;;;11.52;10.40;;;;;;;;;;7298579;19;141292;-76
2023/09/25 01:37:45;;;;;;;11.75;10.57;;;;;;;;;;7299941;19;140706;-76
2023/09/25 01:40:18;;;;;;;11.80;10.60;;;;;;;;;;7301908;19;140840;-77
2023/09/25 01:42:46;;;;;;;11.10;10.00;;;;;;;;;;7300858;19;141443;-77
2023/09/25 01:45:18;;;;;;;11.40;10.20;;;;;;;;;;7301039;19;142870;-77
2023/09/25 01:47:51;;;;;;;11.25;10.15;;;;;;;;;;7301362;19;140480;-77
2023/09/25 01:50:21;;;;;;;11.18;9.95;;;;;;;;;;7300398;19;140719;-76
2023/09/25 01:52:50;;;;;;;10.52;9.43;;;;;;;;;;7301159;19;141202;-76
2023/09/25 01:55:17;;;;;;;11.13;10.02;;;;;;;;;;7299696;19;143112;-76
2023/09/25 01:57:45;;;;;;;10.88;9.80;;;;;;;;;;7300757;19;142690;-76
2023/09/25 02:00:12;;;;;;;10.65;9.55;;;;;;;;;;7299014;19;141110;-76
2023/09/25 02:02:48;;;;;;;11.57;9.02;;;;;;;;;;7302031;19;140854;31
2023/09/25 02:05:17;;;;;;;9.82;8.80;;;;;;;;;;7301350;19;142745;-76
2023/09/25 02:07:44;;;;;;;9.00;7.78;;;;;;;;;;7302784;19;140514;-77
2023/09/25 02:10:14;;;;;;;9.38;8.40;;;;;;;;;;7301926;19;140372;-76
2023/09/25 02:12:41;;;;;;;8.98;8.05;;;;;;;;;;7299489;19;140998;-76
2023/09/25 02:15:08;;;;;;;9.48;8.05;;;;;;;;;;7299546;19;143469;-76
2023/09/25 02:17:43;;;;;;;9.27;8.07;;;;;;;;;;7297937;19;140743;-76
2023/09/25 02:23:08;;;;;;;9.98;8.15;;;;;;;;;;7300589;19;141757;-76
2023/09/25 02:25:35;;;;;;;8.82;7.93;;;;;;;;;;7300330;19;140709;-76
2023/09/25 02:28:03;;;;;;;8.40;7.25;;;;;;;;;;7301977;19;140684;-76
2023/09/25 02:30:30;;;;;;;8.95;7.82;;;;;;;;;;7302087;19;140569;-75
2023/09/25 02:32:59;;;;;;;8.15;7.35;;;;;;;;;;7301631;19;140762;-76
2023/09/25 02:35:27;;;;;;;8.52;7.38;;;;;;;;;;7300823;19;140838;-76
2023/09/25 02:37:54;;;;;;;8.38;7.53;;;;;;;;;;7301686;19;140510;-76
2023/09/25 02:40:21;;;;;;;8.25;7.35;;;;;;;;;;7300778;19;140449;-74
2023/09/25 02:42:49;;;;;;;8.65;7.22;;;;;;;;;;7301115;19;140519;-76
2023/09/25 02:45:16;;;;;;;8.70;7.15;;;;;;;;;;7301217;19;141965;-76
2023/09/25 02:47:44;;;;;;;8.60;7.20;;;;;;;;;;7301133;19;140528;-75
2023/09/25 02:50:11;;;;;;;8.23;7.20;;;;;;;;;;7297658;19;140947;-75
2023/09/25 02:52:38;;;;;;;7.32;6.57;;;;;;;;;;7300360;19;140454;-76
2023/09/25 02:58:35;;;;;;;9.40;6.93;;;;;;;;;;7301697;19;141134;-76
2023/09/25 03:01:02;;;;;;;8.00;6.82;;;;;;;;;;7300394;19;140583;-76
2023/09/25 03:03:30;;;;;;;7.50;6.53;;;;;;;;;;7301000;19;141387;-78
2023/09/25 03:05:57;;;;;;;6.90;6.20;;;;;;;;;;7301403;19;142934;-76
2023/09/25 03:08:24;;;;;;;7.70;6.13;;;;;;;;;;7302220;19;140456;-76
2023/09/25 03:10:51;;;;;;;6.55;5.68;;;;;;;;;;7303649;19;140581;-77
2023/09/25 03:13:18;;;;;;;7.32;6.35;;;;;;;;;;7303195;19;140498;-77
2023/09/25 03:15:46;;;;;;;6.80;5.90;;;;;;;;;;7317239;19;142740;-76
2023/09/25 03:18:13;;;;;;;6.45;5.78;;;;;;;;;;7329278;19;139952;-75
2023/09/25 03:20:40;;;;;;;6.65;5.95;;;;;;;;;;7324920;19;140569;-76
2023/09/25 03:23:07;;;;;;;6.55;5.82;;;;;;;;;;7325933;19;140173;-78
2023/09/25 03:25:35;;;;;;;6.78;5.85;;;;;;;;;;7330105;19;140447;-78
2023/09/25 03:28:02;;;;;;;6.40;5.80;;;;;;;;;;7333273;19;139504;-78
2023/09/25 03:30:30;;;;;;;7.40;5.72;;;;;;;;;;7335122;19;140651;-77
2023/09/25 03:32:57;;;;;;;6.28;5.57;;;;;;;;;;7332789;19;140525;-77
2023/09/25 03:35:24;;;;;;;6.32;5.43;;;;;;;;;;7321892;19;142533;-77
2023/09/25 03:37:51;;;;;;;6.45;5.45;;;;;;;;;;7307126;19;140773;-77
2023/09/25 03:40:18;;;;;;;6.47;5.80;;;;;;;;;;7305686;19;140786;-76
2023/09/25 03:42:45;;;;;;;6.32;5.60;;;;;;;;;;7307067;19;140608;-77
2023/09/25 03:45:13;;;;;;;5.95;5.35;;;;;;;;;;7306844;19;142019;-77
2023/09/25 03:50:53;;;;;;;6.82;5.75;;;;;;;;;;7304193;19;140146;-76
2023/09/25 03:53:20;;;;;;;6.63;5.43;;;;;;;;;;7305941;19;141242;-77
2023/09/25 03:55:48;;;;;;;6.28;5.18;;;;;;;;;;7306508;19;142678;-76
2023/09/25 03:58:15;;;;;;;5.78;5.18;;;;;;;;;;7305440;19;140532;-76
2023/09/25 04:00:42;;;;;;;6.55;5.07;;;;;;;;;;7307490;19;140563;-76
2023/09/25 04:03:10;;;;;;;6.47;5.57;;;;;;;;;;7302639;19;141084;-75
2023/09/25 04:05:37;;;;;;;5.20;4.70;;;;;;;;;;7306067;19;142051;-76
2023/09/25 04:08:05;;;;;;;5.57;5.07;;;;;;;;;;7306878;19;140494;-76
2023/09/25 04:10:32;;;;;;;5.85;5.25;;;;;;;;;;7305827;19;140529;-75
2023/09/25 04:13:00;;;;;;;5.53;4.60;;;;;;;;;;7305558;19;141869;-76
2023/09/25 04:15:27;;;;;;;5.53;4.97;;;;;;;;;;7303607;19;141434;-75
2023/09/25 04:46:38;;;;;;;4.78;2.90;;;;;;;;;;7311593;19;140415;-90
2023/09/25 04:52:23;;;;;;;3.53;2.55;;;;;;;;;;7302145;19;142003;-90
2023/09/25 04:55:02;;;;;;;6.03;3.10;;;;;;;;;;7303238;19;140571;-80
2023/09/25 04:57:29;;;;;;;3.07;2.77;;;;;;;;;;7304036;19;140624;-78
2023/09/25 04:59:57;;;;;;;3.92;2.78;;;;;;;;;;7299953;19;140420;-80
2023/09/25 05:02:24;;;;;;;4.80;2.53;;;;;;;;;;7304071;19;142026;-78
2023/09/25 05:04:51;;;;;;;3.47;3.15;;;;;;;;;;7302669;19;140676;-78
2023/09/25 05:07:19;;;;;;;3.20;2.78;;;;;;;;;;7304228;19;140766;-78
2023/09/25 05:09:46;;;;;;;3.88;2.90;;;;;;;;;;7303840;19;140963;-77
2023/09/25 05:12:14;;;;;;;3.58;2.60;;;;;;;;;;7302253;19;141968;-78
2023/09/25 05:14:41;;;;;;;3.65;2.80;;;;;;;;;;7303802;19;141081;-79
2023/09/25 05:20:41;;;;;;;3.03;2.67;;;;;;;;;;7303362;19;140571;-80
2023/09/25 05:26:11;;;;;;;3.10;2.72;;;;;;;;;;7299211;19;140765;-79
2023/09/25 05:28:39;;;;;;;2.70;2.50;;;;;;;;;;7303957;19;140608;-79
2023/09/25 05:31:07;;;;;;;3.75;2.50;;;;;;;;;;7303416;19;140957;-78
2023/09/25 05:33:34;;;;;;;2.45;2.25;;;;;;;;;;7303852;19;143401;-79
2023/09/25 05:36:01;;;;;;;3.92;2.50;;;;;;;;;;7302696;19;140501;-81
2023/09/25 05:38:29;;;;;;;2.92;2.45;;;;;;;;;;7309800;19;141041;-78
2023/09/25 05:41:14;;;;;;;4.07;2.47;;;;;;;;;;7300835;19;146801;-77
2023/09/25 05:43:41;;;;;;;2.47;2.28;;;;;;;;;;7303072;19;141593;-77
2023/09/25 05:46:08;;;;;;;3.35;2.50;;;;;;;;;;7303265;19;140632;-78
2023/09/25 05:48:35;;;;;;;2.58;2.30;;;;;;;;;;7300840;19;141315;-77
2023/09/25 05:51:02;;;;;;;2.13;1.92;;;;;;;;;;7302597;19;140931;-77
2023/09/25 05:56:25;;;;;;;2.55;2.20;;;;;;;;;;7302083;19;140472;-76
2023/09/25 05:58:52;;;;;;;3.05;2.20;;;;;;;;;;7302581;19;140683;-75
2023/09/25 06:01:19;;;;;;;2.42;2.22;;;;;;;;;;7302217;19;140609;-78
2023/09/25 06:03:47;;;;;;;2.80;2.20;;;;;;;;;;7301464;19;142036;-76
2023/09/25 06:06:14;;;;;;;2.50;2.25;;;;;;;;;;7304651;19;140594;-78
2023/09/25 06:08:42;;;;;;;2.90;2.20;;;;;;;;;;7299090;19;141860;-78
2023/09/25 06:11:09;;;;;;;2.92;2.20;;;;;;;;;;7301078;19;141292;-76
2023/09/25 06:13:36;;;;;;;2.65;2.20;;;;;;;;;;7301906;19;141843;-76
2023/09/25 06:16:05;;;;;;;2.33;2.08;;;;;;;;;;7302035;19;140692;-76
2023/09/25 06:18:32;;;;;;;2.30;2.10;;;;;;;;;;7302469;19;140571;-76
2023/09/25 06:20:59;;;;;;;2.47;2.17;;;;;;;;;;7301183;19;141682;-77
2023/09/25 06:23:26;;;;;;;1.90;1.80;;;;;;;;;;7301833;19;141732;-77
2023/09/25 06:25:53;;;;;;;5.43;2.75;;;;;;;;;;7295611;19;144497;-79
2023/09/25 06:28:23;;;;;;;2.28;1.92;;;;;;;;;;7302263;19;140380;-77
2023/09/25 06:30:52;;;;;;;2.20;1.83;;;;;;;;;;7300093;19;142025;-78
2023/09/25 06:33:20;;;;;;;2.17;1.95;;;;;;;;;;7302374;19;140872;-77
2023/09/25 06:35:48;;;;;;;2.22;2.03;;;;;;;;;;7303509;19;140574;-77
2023/09/25 06:38:16;;;;;;;2.60;2.05;;;;;;;;;;7301782;19;140549;-75
2023/09/25 06:40:43;;;;;;;2.28;1.88;;;;;;;;;;7300367;19;141124;-76
2023/09/25 06:43:10;;;;;;;1.95;1.73;;;;;;;;;;7301470;19;141953;-78
2023/09/25 06:45:38;;;;;;;2.00;1.80;;;;;;;;;;7301206;19;140455;-77
2023/09/25 06:48:05;;;;;;;2.17;1.90;;;;;;;;;;7301608;19;140752;-77
2023/09/25 06:50:33;;;;;;;2.10;1.80;;;;;;;;;;7300828;19;140807;-77
2023/09/25 06:53:00;;;;;;;2.25;1.98;;;;;;;;;;7300404;19;142206;-78
2023/09/25 06:55:27;;;;;;;2.03;1.80;;;;;;;;;;7301104;19;140530;-78
2023/09/25 06:57:54;;;;;;;2.20;2.00;;;;;;;;;;7301123;19;140628;-77
2023/09/25 07:00:33;;;;;;;6.65;2.90;;;;;;;;;;7302299;19;140652;-77
2023/09/25 07:03:20;;;;;;;1.63;1.52;;;;;;;;;;7308764;19;140833;-78
2023/09/25 07:05:47;;;;;;;2.58;1.92;;;;;;;;;;7305374;19;140945;-78
2023/09/25 07:08:33;;;;;;;2.88;1.65;;;;;;;;;;7308346;19;140614;-80
2023/09/25 07:11:00;;;;;;;2.47;1.75;;;;;;;;;;7307719;19;140791;-79
2023/09/25 07:13:27;;;;;;;2.03;1.77;;;;;;;;;;7305306;19;142236;-75
2023/09/25 07:16:04;;;;;;;2.10;1.83;;;;;;;;;;7307494;19;140479;-76
2023/09/25 07:18:32;;;;;;;1.90;1.70;;;;;;;;;;7307866;19;140837;-76
2023/09/25 07:20:59;;;;;;;2.08;1.88;;;;;;;;;;7305853;19;141008;-75
2023/09/25 07:23:27;;;;;;;1.60;1.50;;;;;;;;;;7306282;19;142496;-76
2023/09/25 07:26:04;;;;;;;1.50;1.40;;;;;;;;;;7306821;19;140639;-77
2023/09/25 07:28:31;;;;;;;1.70;1.60;;;;;;;;;;7305120;19;140679;-76
2023/09/25 07:31:01;;;;;;;1.77;1.67;;;;;;;;;;7305420;19;140819;-76
2023/09/25 07:33:34;;;;;;;1.85;1.60;;;;;;;;;;7306213;19;141096;-77
2023/09/25 07:36:03;;;;;;;1.67;1.58;;;;;;;;;;7306106;19;140972;-77
2023/09/25 07:38:33;;;;;;;2.00;1.65;;;;;;;;;;7306123;19;140448;-77
2023/09/25 07:41:00;;;;;;;2.22;1.73;;;;;;;;;;7306480;19;141528;-79
2023/09/25 07:43:29;;;;;;;1.60;1.50;;;;;;;;;;7306616;19;142004;-77
2023/09/25 07:46:20;;;;;;;1.48;1.27;;;;;;;;;;7306979;19;140647;-76
2023/09/25 07:48:50;;;;;;;1.70;1.60;;;;;;;;;;7306592;19;140975;-76
2023/09/25 07:51:17;;;;;;;1.88;1.70;;;;;;;;;;7304014;19;141172;-76
2023/09/25 07:53:45;;;;;;;1.40;1.30;;;;;;;;;;7305570;19;141987;-77
2023/09/25 07:56:12;;;;;;;1.40;1.30;;;;;;;;;;7305465;19;140466;-76
2023/09/25 07:58:39;;;;;;;1.60;1.50;;;;;;;;;;7306393;19;140858;-77
2023/09/25 08:01:08;;;;;;;1.50;1.40;;;;;;;;;;7303003;19;141224;-76
2023/09/25 08:03:37;;;;;;;1.85;1.42;;;;;;;;;;7306196;19;142424;-77
2023/09/25 08:06:05;;;;;;;1.50;1.40;;;;;;;;;;7303760;19;140756;-78
2023/09/25 08:08:34;;;;;;;2.55;1.92;;;;;;;;;;7304801;19;141598;-79
2023/09/25 08:11:01;;;;;;;1.90;1.52;;;;;;;;;;7305502;19;141517;-74
2023/09/25 08:13:31;;;;;;;1.80;1.30;;;;;;;;;;7303394;19;143101;-73
2023/09/25 08:16:05;;;;;;;1.50;1.40;;;;;;;;;;7303561;19;142725;-72
2023/09/25 08:18:33;;;;;;;1.70;1.30;;;;;;;;;;7306263;19;140551;-73
2023/09/25 08:21:01;;;;;;;1.70;1.50;;;;;;;;;;7303577;19;141437;-73
2023/09/25 08:23:28;;;;;;;1.73;1.35;;;;;;;;;;7304545;19;142605;-73
2023/09/25 08:25:56;;;;;;;1.70;1.42;;;;;;;;;;7299389;19;140857;-71
2023/09/25 08:28:24;;;;;;;1.48;1.38;;;;;;;;;;7302616;19;140786;-73
2023/09/25 08:30:51;;;;;;;1.80;1.50;;;;;;;;;;7302376;19;140439;-73
2023/09/25 08:33:18;;;;;;;1.38;1.27;;;;;;;;;;7305099;19;143024;-73
2023/09/25 08:35:45;;;;;;;3.65;1.70;;;;;;;;;;7300140;19;140866;-72
2023/09/25 08:38:13;;;;;;;3.72;1.58;;;;;;;;;;7305217;19;140722;-72
2023/09/25 08:40:49;;;;;;;3.90;1.63;;;;;;;;;;7300929;19;142928;-72
2023/09/25 08:43:18;;;;;;;3.47;1.83;;;;;;;;;;7302778;19;142603;-73
2023/09/25 08:45:48;;;;;;;1.83;1.60;;;;;;;;;;7304791;19;140603;-73
2023/09/25 08:48:16;;;;;;;1.80;1.50;;;;;;;;;;7304880;19;140441;-74
2023/09/25 08:50:44;;;;;;;3.92;1.80;;;;;;;;;;7303336;19;141637;-73
2023/09/25 08:53:12;;;;;;;2.30;1.30;;;;;;;;;;7302439;19;141242;-73
2023/09/25 08:55:39;;;;;;;1.80;1.42;;;;;;;;;;7304263;19;140736;-74
2023/09/25 08:58:10;;;;;;;1.77;1.50;;;;;;;;;;7302078;19;140781;-74
2023/09/25 09:00:38;;;;;;;5.15;2.00;;;;;;;;;;7301959;19;142107;-74
2023/09/25 09:03:05;;;;;;;2.90;1.63;;;;;;;;;;7301473;19;142362;-74
2023/09/25 09:05:33;;;;;;;4.72;1.63;;;;;;;;;;7302529;19;142566;-73
2023/09/25 09:08:05;;;;;;;2.72;1.55;;;;;;;;;;7303591;19;140648;-73
2023/09/25 09:14:16;;;;;;;3.83;1.80;;;;;;;;;;7303644;19;141079;-80
2023/09/25 09:16:59;;;;;;;2.72;1.40;;;;;;;;;;7298316;19;141313;-83
2023/09/25 09:22:58;;;;;;;7.93;1.80;;;;;;;;;;7286318;19;144456;-82
2023/09/25 09:28:47;;;;;;;3.55;1.80;;;;;;;;;;7301884;19;140823;-85
2023/09/25 09:31:34;;;;;;;4.50;1.60;;;;;;;;;;7301361;19;140580;-87
2023/09/25 09:34:04;;;;;;;3.83;1.92;;;;;;;;;;7298890;19;143188;-82
2023/09/25 09:36:32;;;;;;;3.17;1.77;;;;;;;;;;7301437;19;142006;-83
2023/09/25 09:38:59;;;;;;;2.40;1.75;;;;;;;;;;7303080;19;141034;-84
2023/09/25 09:41:32;;;;;;;5.28;1.80;;;;;;;;;;7303069;19;140646;-81
2023/09/25 09:44:12;;;;;;;3.72;1.70;;;;;;;;;;7300710;19;140857;-80
2023/09/25 09:46:42;;;;;;;3.45;1.80;;;;;;;;;;7301296;19;142675;-81
2023/09/25 09:55:15;;;;;;;2.00;1.50;;;;;;;;;;7299986;19;142334;-81
2023/09/25 09:57:44;;;;;;;4.10;1.50;;;;;;;;;;7302273;19;140755;-84
2023/09/25 10:00:12;;;;;;;3.25;1.35;;;;;;;;;;7300568;19;140533;-82
2023/09/25 10:02:40;;;;;;;3.95;1.95;;;;;;;;;;7300795;19;140601;-81
2023/09/25 10:05:10;;;;;;;2.60;1.40;;;;;;;;;;7301767;19;140996;-83
2023/09/25 10:07:56;;;;;;;2.35;1.50;;;;;;;;;;7301505;19;140732;-83
2023/09/25 10:10:29;;;;;;;2.47;1.67;;;;;;;;;;7299956;19;141597;-82
2023/09/25 10:13:00;;;;;;;3.03;1.63;;;;;;;;;;7299373;19;140691;-79
2023/09/25 10:15:28;;;;;;;2.53;1.63;;;;;;;;;;7297190;19;141024;-78
2023/09/25 10:17:56;;;;;;;2.38;1.67;;;;;;;;;;7298895;19;141001;-78
2023/09/25 10:20:30;;;;;;;5.22;2.05;;;;;;;;;;7299148;19;141512;-78
2023/09/25 10:22:58;;;;;;;2.85;1.60;;;;;;;;;;7298182;19;140899;-78
2023/09/25 10:25:26;;;;;;;3.75;1.83;;;;;;;;;;7299921;19;142923;-78
2023/09/25 10:28:22;;;;;;;4.28;1.65;;;;;;;;;;7295440;19;141092;-78
2023/09/25 10:30:50;;;;;;;3.28;1.80;;;;;;;;;;7300044;19;140778;-78
2023/09/25 10:33:18;;;;;;;2.13;1.50;;;;;;;;;;7299702;19;140440;-78
2023/09/25 10:35:49;;;;;;;4.93;1.95;;;;;;;;;;7296051;19;140846;-78
2023/09/25 10:38:25;;;;;;;2.47;1.70;;;;;;;;;;7300321;19;140896;-78
2023/09/25 10:41:02;;;;;;;3.42;1.67;;;;;;;;;;7301155;19;140643;-77
2023/09/25 10:43:30;;;;;;;2.47;1.70;;;;;;;;;;7300771;19;140701;-78
2023/09/25 10:45:57;;;;;;;2.42;1.63;;;;;;;;;;7300276;19;140968;-77
2023/09/25 10:48:26;;;;;;;3.58;1.80;;;;;;;;;;7300415;19;141815;-76
2023/09/25 10:50:54;;;;;;;2.70;1.65;;;;;;;;;;7301046;19;140579;-76
2023/09/25 10:53:24;;;;;;;3.00;1.40;;;;;;;;;;7300197;19;140538;-76
2023/09/25 10:55:51;;;;;;;2.50;1.50;;;;;;;;;;7298892;19;142162;-76
2023/09/25 10:58:18;;;;;;;1.58;1.30;;;;;;;;;;7300143;19;141806;-76
2023/09/25 11:00:46;;;;;;;2.53;1.55;;;;;;;;;;7300959;19;140512;-76
2023/09/25 11:03:14;;;;;;;2.60;1.80;;;;;;;;;;7299890;19;140623;-76
2023/09/25 11:05:42;;;;;;;1.70;1.60;;;;;;;;;;7300194;19;140994;-76
2023/09/25 11:08:10;;;;;;;2.65;1.73;;;;;;;;;;7297872;19;141206;-75
2023/09/25 11:10:38;;;;;;;2.75;1.60;;;;;;;;;;7297619;19;140766;-75
2023/09/25 11:13:05;;;;;;;1.70;1.40;;;;;;;;;;7299146;19;140457;-75
2023/09/25 11:15:36;;;;;;;2.17;1.50;;;;;;;;;;7298578;19;141004;-74
2023/09/25 11:18:06;;;;;;;2.60;1.40;;;;;;;;;;7299363;19;142215;-76
2023/09/25 11:20:34;;;;;;;1.42;1.27;;;;;;;;;;7299798;19;140783;-74
2023/09/25 11:23:05;;;;;;;2.15;1.42;;;;;;;;;;7299215;19;140730;-75
2023/09/25 11:25:46;;;;;;;3.35;1.58;;;;;;;;;;7299121;19;140755;-76
2023/09/25 11:28:14;;;;;;;1.98;1.63;;;;;;;;;;7298200;19;142105;-75
2023/09/25 11:30:42;;;;;;;3.13;1.70;;;;;;;;;;7298793;19;140599;-74
2023/09/25 11:33:09;;;;;;;1.55;1.20;;;;;;;;;;7299681;19;141091;-74
2023/09/25 11:35:39;;;;;;;2.10;1.60;;;;;;;;;;7298464;19;141194;-75
2023/09/25 11:38:11;;;;;;;2.75;1.67;;;;;;;;;;7299101;19;141503;-75
2023/09/25 11:40:38;;;;;;;2.38;1.30;;;;;;;;;;7299403;19;141168;-78
2023/09/25 11:43:06;;;;;;;1.55;1.30;;;;;;;;;;7298632;19;140630;-76
2023/09/25 11:45:34;;;;;;;2.67;1.63;;;;;;;;;;7300319;19;141654;-76
2023/09/25 11:48:01;;;;;;;2.05;1.40;;;;;;;;;;7304899;19;142057;-75
2023/09/25 11:50:29;;;;;;;2.10;1.55;;;;;;;;;;7302411;19;142684;-75
2023/09/25 11:52:56;;;;;;;2.72;1.77;;;;;;;;;;7303256;19;140910;-74
2023/09/25 11:55:23;;;;;;;2.67;1.60;;;;;;;;;;7304609;19;141319;-75
2023/09/25 11:57:50;;;;;;;2.50;1.42;;;;;;;;;;7304151;19;141402;-76
2023/09/25 12:00:18;;;;;;;1.70;1.40;;;;;;;;;;7303856;19;140823;-76
2023/09/25 12:02:46;;;;;;;2.03;1.48;;;;;;;;;;7305260;19;140480;-76
2023/09/25 12:05:13;;;;;;;1.83;1.20;;;;;;;;;;7303599;19;141689;-76
2023/09/25 12:07:43;;;;;;;1.98;1.40;;;;;;;;;;7303623;19;142564;-76
2023/09/25 12:10:16;;;;;;;1.52;1.23;;;;;;;;;;7304291;19;140591;-76
2023/09/25 12:12:47;;;;;;;1.77;1.30;;;;;;;;;;7305831;19;140565;-76
2023/09/25 12:15:15;;;;;;;2.13;1.52;;;;;;;;;;7304102;19;141763;-75
2023/09/25 12:17:45;;;;;;;1.40;1.30;;;;;;;;;;7304567;19;142034;-77
2023/09/25 12:20:15;;;;;;;1.67;1.20;;;;;;;;;;7304934;19;142249;-77
2023/09/25 12:22:45;;;;;;;2.30;1.52;;;;;;;;;;7302792;19;142443;-77
2023/09/25 12:25:13;;;;;;;1.60;1.33;;;;;;;;;;7303270;19;141250;-77
2023/09/25 12:27:41;;;;;;;1.85;1.48;;;;;;;;;;7299484;19;142491;-75
2023/09/25 12:33:11;;;;;;;1.77;1.35;;;;;;;;;;7306318;19;141433;-75
2023/09/25 12:35:41;;;;;;;1.60;1.23;;;;;;;;;;7303047;19;140951;-75
2023/09/25 12:38:09;;;;;;;2.30;1.40;;;;;;;;;;7302881;19;142175;-74
2023/09/25 12:40:36;;;;;;;1.63;1.23;;;;;;;;;;7304418;19;140911;-77
2023/09/25 12:43:10;;;;;;;2.13;1.33;;;;;;;;;;7303320;19;140718;-77
2023/09/25 12:45:38;;;;;;;2.90;1.48;;;;;;;;;;7304952;19;141359;-77
2023/09/25 12:48:06;;;;;;;1.92;1.10;;;;;;;;;;7303751;19;142934;-77
2023/09/25 12:50:33;;;;;;;1.40;1.30;;;;;;;;;;7304413;19;140643;-75
2023/09/25 12:53:00;;;;;;;1.80;1.20;;;;;;;;;;7303343;19;140684;-76
2023/09/25 12:55:30;;;;;;;2.67;1.45;;;;;;;;;;7302571;19;141177;-76
2023/09/25 12:57:58;;;;;;;1.80;1.20;;;;;;;;;;7301769;19;143569;-76
2023/09/25 13:00:25;;;;;;;1.92;1.15;;;;;;;;;;7303979;19;140595;-75
2023/09/25 13:02:53;;;;;;;2.22;1.40;;;;;;;;;;7303421;19;140525;-78
2023/09/25 13:05:20;;;;;;;7.38;2.67;;;;;;;;;;7298522;19;141875;-79
2023/09/25 13:07:48;;;;;;;3.90;2.15;;;;;;;;;;7303061;19;141032;-79
2023/09/25 13:13:08;;;;;;;9.20;3.40;;;;;;;;;;7302221;19;140330;-84
2023/09/25 13:15:36;;;;;;;6.30;3.08;;;;;;;;;;7301215;19;140653;-78
2023/09/25 13:18:04;;;;;;;6.47;2.88;;;;;;;;;;7300773;19;141741;-78
2023/09/25 13:20:33;;;;;;;7.80;2.85;;;;;;;;;;7303175;19;140514;-76
2023/09/25 13:23:00;;;;;;;7.03;3.15;;;;;;;;;;7303139;19;141038;-78
2023/09/25 13:25:27;;;;;;;7.25;3.00;;;;;;;;;;7300709;19;142567;-79
2023/09/25 13:27:54;;;;;;;7.85;2.90;;;;;;;;;;7301197;19;141174;-79
2023/09/25 13:30:21;;;;;;;3.90;2.30;;;;;;;;;;7301233;19;140706;-79
2023/09/25 13:32:49;;;;;;;5.47;2.78;;;;;;;;;;7301993;19;140654;-79
2023/09/25 13:35:16;;;;;;;7.05;2.60;;;;;;;;;;7302890;19;141083;-78
2023/09/25 13:37:44;;;;;;;5.95;2.30;;;;;;;;;;7301630;19;140803;-79
2023/09/25 13:40:16;;;;;;;8.18;2.95;;;;;;;;;;7302076;19;140857;-79
2023/09/25 13:42:44;;;;;;;7.95;2.63;;;;;;;;;;7301442;19;140830;-78
2023/09/25 13:45:12;;;;;;;7.47;2.65;;;;;;;;;;7302346;19;140653;-77
2023/09/25 13:47:39;;;;;;;5.57;2.58;;;;;;;;;;7301100;19;142335;-79
2023/09/25 13:50:07;;;;;;;8.27;2.58;;;;;;;;;;7300347;19;142740;-77
2023/09/25 13:52:34;;;;;;;4.95;2.83;;;;;;;;;;7302188;19;140710;-78
2023/09/25 13:55:01;;;;;;;6.82;2.58;;;;;;;;;;7301586;19;141496;-78
2023/09/25 13:57:28;;;;;;;4.63;2.55;;;;;;;;;;7301098;19;142181;-78
2023/09/25 13:59:55;;;;;;;5.32;2.60;;;;;;;;;;7302147;19;141186;-79
2023/09/25 14:02:22;;;;;;;6.45;2.38;;;;;;;;;;7299972;19;140542;-79
2023/09/25 14:04:50;;;;;;;7.35;2.50;;;;;;;;;;7300336;19;140888;-79
2023/09/25 14:07:17;;;;;;;4.78;2.13;;;;;;;;;;7301177;19;142698;-79
2023/09/25 14:09:44;;;;;;;4.93;2.30;;;;;;;;;;7300989;19;140620;-78
2023/09/25 14:12:11;;;;;;;3.38;2.03;;;;;;;;;;7301316;19;141001;-78
2023/09/25 14:14:42;;;;;;;5.53;2.40;;;;;;;;;;7301627;19;141649;-79
2023/09/25 14:17:09;;;;;;;4.63;2.25;;;;;;;;;;7302036;19;141906;-78
2023/09/25 14:19:36;;;;;;;5.15;2.28;;;;;;;;;;7301901;19;140557;-78
2023/09/25 14:22:04;;;;;;;5.20;2.17;;;;;;;;;;7299108;19;140773;-80
2023/09/25 14:24:31;;;;;;;5.63;2.45;;;;;;;;;;7301270;19;141179;-78
2023/09/25 14:27:00;;;;;;;6.28;2.30;;;;;;;;;;7300144;19;142656;-78
2023/09/25 14:29:28;;;;;;;3.63;1.83;;;;;;;;;;7300164;19;140814;-78
2023/09/25 14:31:55;;;;;;;3.30;2.20;;;;;;;;;;7301432;19;140375;-78
2023/09/25 14:34:23;;;;;;;5.00;2.58;;;;;;;;;;7301247;19;141646;-78
2023/09/25 14:36:51;;;;;;;4.53;1.90;;;;;;;;;;7301101;19;140830;-78
2023/09/25 14:39:18;;;;;;;3.55;2.17;;;;;;;;;;7299635;19;140493;-78
2023/09/25 14:41:45;;;;;;;3.65;2.20;;;;;;;;;;7298554;19;140835;-78
2023/09/25 14:44:13;;;;;;;3.92;2.17;;;;;;;;;;7301445;19;141315;-77
2023/09/25 14:46:40;;;;;;;3.67;2.13;;;;;;;;;;7299787;19;143971;-77
2023/09/25 14:49:09;;;;;;;3.00;1.67;;;;;;;;;;7299638;19;140706;-79
2023/09/25 14:51:36;;;;;;;4.03;2.03;;;;;;;;;;7299526;19;140811;-78
2023/09/25 14:54:03;;;;;;;2.47;1.75;;;;;;;;;;7300122;19;141508;-78
2023/09/25 14:56:30;;;;;;;4.72;2.17;;;;;;;;;;7295162;19;142898;-77
2023/09/25 15:02:00;;;;;;;3.35;1.63;;;;;;;;;;7283435;19;142816;-78
2023/09/25 15:04:28;;;;;;;5.10;2.22;;;;;;;;;;7300060;19;140970;-76
2023/09/25 15:10:09;;;;;;;;;;;;;;;;;;7298207;19;141117;-78
2023/09/25 15:12:36;;;;;;;3.78;1.80;;;;;;;;;;7300329;19;140651;-76
2023/09/25 15:15:32;;;;;;;4.25;1.85;;;;;;;;;;7291801;19;140841;-79
2023/09/25 15:17:59;;;;;;;3.47;1.80;;;;;;;;;;7300324;19;142492;-79
2023/09/25 15:20:26;;;;;;;4.13;1.98;;;;;;;;;;7302683;19;140509;-77
2023/09/25 15:22:53;;;;;;;4.97;1.80;;;;;;;;;;7306723;19;140871;-79
2023/09/25 15:25:21;;;;;;;2.83;1.75;;;;;;;;;;7307895;19;140540;-78
2023/09/25 15:27:49;;;;;;;2.92;2.10;;;;;;;;;;7309224;19;140612;-76
2023/09/25 15:30:16;;;;;;;3.00;1.63;;;;;;;;;;7323986;19;140477;-78
2023/09/25 15:32:44;;;;;;;1.95;1.63;;;;;;;;;;7327104;19;140454;-76
2023/09/25 15:35:11;;;;;;;3.13;2.03;;;;;;;;;;7324676;19;140563;-76
2023/09/25 15:37:38;;;;;;;2.50;1.80;;;;;;;;;;7324735;19;143016;-76
2023/09/25 15:40:05;;;;;;;4.70;1.95;;;;;;;;;;7328574;19;140134;-78
2023/09/25 15:42:33;;;;;;;2.95;1.55;;;;;;;;;;7333275;19;140080;-78
2023/09/25 15:45:00;;;;;;;3.08;1.90;;;;;;;;;;7323825;19;140614;-76
2023/09/25 15:47:28;;;;;;;2.78;1.70;;;;;;;;;;7317787;19;142396;-79
2023/09/25 15:49:58;;;;;;;5.72;2.40;;;;;;;;;;7300894;19;141615;-78
2023/09/25 15:52:31;;;;;;;7.17;2.03;;;;;;;;;;7303862;19;142747;-78
2023/09/25 15:54:58;;;;;;;5.70;1.83;;;;;;;;;;7306347;19;142063;-79